createdAt,value
2022-12-19T00:03:56.407Z,-2.17
2022-12-19T00:08:03.095Z,-2.17
2022-12-19T00:12:19.188Z,-2.17
2022-12-19T00:16:24.123Z,-2.19
2022-12-19T00:20:28.489Z,-2.20
2022-12-19T00:24:31.335Z,-2.17
2022-12-19T00:28:34.278Z,-2.17
2022-12-19T00:32:39.035Z,-2.19
2022-12-19T00:36:43.565Z,-2.23
2022-12-19T00:40:46.642Z,-2.22
2022-12-19T00:44:49.527Z,-2.23
2022-12-19T00:48:52.984Z,-2.23
2022-12-19T00:52:57.550Z,-2.20
2022-12-19T00:57:00.448Z,-2.20
2022-12-19T01:01:07.111Z,-2.22
2022-12-19T01:05:10.793Z,-2.19
2022-12-19T01:09:15.443Z,-2.20
2022-12-19T01:13:20.828Z,-2.18
2022-12-19T01:17:24.182Z,-2.22
2022-12-19T01:21:29.168Z,-2.23
2022-12-19T01:25:34.011Z,-2.22
2022-12-19T01:29:47.691Z,-2.31
2022-12-19T01:33:55.716Z,-2.36
2022-12-19T01:38:07.739Z,-2.33
2022-12-19T01:42:16.369Z,-2.36
2022-12-19T01:46:28.209Z,-2.38
2022-12-19T01:50:37.685Z,-2.40
2022-12-19T01:54:44.716Z,-2.42
2022-12-19T01:58:57.949Z,-2.45
2022-12-19T02:03:17.570Z,-2.46
2022-12-19T02:07:23.269Z,-2.50
2022-12-19T02:11:26.236Z,-2.50
2022-12-19T02:15:34.136Z,-2.53
2022-12-19T02:20:14.699Z,-2.55
2022-12-19T02:24:52.251Z,-2.55
2022-12-19T02:29:21.978Z,-2.59
2022-12-19T02:33:36.968Z,-2.59
2022-12-19T02:37:49.067Z,-2.62
2022-12-19T02:41:57.552Z,-2.62
2022-12-19T02:46:02.629Z,-2.63
2022-12-19T02:50:09.420Z,-2.64
2022-12-19T02:54:12.927Z,-2.61
2022-12-19T02:58:37.714Z,-2.62
2022-12-19T03:02:52.249Z,-2.62
2022-12-19T03:07:11.929Z,-2.65
2022-12-19T03:11:16.457Z,-2.70
2022-12-19T03:15:24.544Z,-2.66
2022-12-19T03:19:29.496Z,-2.70
2022-12-19T03:23:34.170Z,-2.71
2022-12-19T03:27:39.429Z,-2.73
2022-12-19T03:31:45.191Z,-2.67
2022-12-19T03:35:49.882Z,-2.66
2022-12-19T03:39:59.914Z,-2.60
2022-12-19T03:44:08.281Z,-2.59
2022-12-19T03:48:17.042Z,-2.54
2022-12-19T03:52:29.051Z,-2.55
2022-12-19T03:56:38.432Z,-2.52
2022-12-19T04:00:45.239Z,-2.53
2022-12-19T04:04:52.841Z,-2.48
2022-12-19T04:08:57.854Z,-2.47
2022-12-19T04:13:07.436Z,-2.47
2022-12-19T04:17:21.100Z,-2.42
2022-12-19T04:21:31.868Z,-2.47
2022-12-19T04:25:40.233Z,-2.49
2022-12-19T04:29:45.167Z,-2.51
2022-12-19T04:33:48.211Z,-2.52
2022-12-19T04:37:52.682Z,-2.48
2022-12-19T04:41:55.580Z,-2.51
2022-12-19T04:45:59.925Z,-2.52
2022-12-19T04:50:02.837Z,-2.51
2022-12-19T04:54:05.835Z,-2.47
2022-12-19T04:58:09.103Z,-2.48
2022-12-19T05:02:13.436Z,-2.53
2022-12-19T05:06:17.122Z,-2.54
2022-12-19T05:10:20.508Z,-2.55
2022-12-19T05:14:23.468Z,-2.60
2022-12-19T05:18:28.293Z,-2.65
2022-12-19T05:22:31.215Z,-2.69
2022-12-19T05:26:34.211Z,-2.71
2022-12-19T05:30:37.424Z,-2.73
2022-12-19T05:34:42.275Z,-2.74
2022-12-19T05:38:46.057Z,-2.76
2022-12-19T05:42:49.071Z,-2.81
2022-12-19T05:46:52.101Z,-2.80
2022-12-19T05:50:56.526Z,-2.87
2022-12-19T05:55:00.080Z,-2.89
2022-12-19T05:59:02.999Z,-2.89
2022-12-19T06:03:06.240Z,-2.93
2022-12-19T06:07:11.053Z,-2.95
2022-12-19T06:11:15.082Z,-2.99
2022-12-19T06:15:18.311Z,-2.99
2022-12-19T06:19:21.452Z,-3.03
2022-12-19T06:23:25.874Z,-2.97
2022-12-19T06:27:29.090Z,-3.04
2022-12-19T06:31:32.056Z,-3.07
2022-12-19T06:35:35.071Z,-3.12
2022-12-19T06:39:39.632Z,-3.11
2022-12-19T06:43:42.587Z,-3.11
2022-12-19T06:47:45.570Z,-3.15
2022-12-19T06:51:51.895Z,-3.18
2022-12-19T06:55:58.365Z,-3.18
2022-12-19T07:00:01.544Z,-3.17
2022-12-19T07:04:04.949Z,-3.20
2022-12-19T07:08:09.583Z,-3.21
2022-12-19T07:12:14.025Z,-3.24
2022-12-19T07:16:17.154Z,-3.23
2022-12-19T07:20:22.099Z,-3.23
2022-12-19T07:24:25.191Z,-3.23
2022-12-19T07:28:29.560Z,-3.24
2022-12-19T07:32:32.508Z,-3.25
2022-12-19T07:36:35.466Z,-3.26
2022-12-19T07:40:38.548Z,-3.24
2022-12-19T07:44:42.882Z,-3.22
2022-12-19T07:48:45.827Z,-3.22
2022-12-19T07:52:48.849Z,-3.19
2022-12-19T07:56:52.599Z,-3.18
2022-12-19T08:00:58.440Z,-3.18
2022-12-19T08:05:05.684Z,-3.13
2022-12-19T08:09:08.937Z,-3.10
2022-12-19T08:13:11.905Z,-3.09
2022-12-19T08:17:21.012Z,-3.08
2022-12-19T08:21:25.300Z,-3.03
2022-12-19T08:25:28.471Z,-2.99
2022-12-19T08:29:32.215Z,-2.97
2022-12-19T08:33:36.841Z,-2.93
2022-12-19T08:37:39.886Z,-2.85
2022-12-19T08:41:42.835Z,-2.88
2022-12-19T08:45:46.005Z,-2.89
2022-12-19T08:49:50.462Z,-2.85
2022-12-19T08:53:53.682Z,-2.82
2022-12-19T08:57:56.689Z,-2.79
2022-12-19T09:02:00.215Z,-2.73
2022-12-19T09:06:12.039Z,-2.70
2022-12-19T09:10:21.081Z,-2.63
2022-12-19T09:14:24.021Z,-2.59
2022-12-19T09:18:26.964Z,-2.54
2022-12-19T09:22:31.268Z,-2.49
2022-12-19T09:26:34.700Z,-2.44
2022-12-19T09:30:37.711Z,-2.46
2022-12-19T09:34:40.836Z,-2.42
2022-12-19T09:38:45.665Z,-2.39
2022-12-19T09:43:03.167Z,-2.34
2022-12-19T09:47:13.421Z,-2.27
2022-12-19T09:51:29.212Z,-2.21
2022-12-19T09:55:37.394Z,-2.14
2022-12-19T09:59:49.668Z,-2.09
2022-12-19T10:04:02.337Z,-2.04
2022-12-19T10:08:16.283Z,-2.03
2022-12-19T10:12:51.432Z,-1.97
2022-12-19T10:22:07.634Z,-1.92
2022-12-19T10:26:01.182Z,-1.89
2022-12-19T10:30:15.757Z,-1.85
2022-12-19T10:34:22.292Z,-1.80
2022-12-19T10:38:30.310Z,-1.78
2022-12-19T10:42:42.302Z,-1.79
2022-12-19T10:46:49.247Z,-1.75
2022-12-19T10:50:52.445Z,-1.74
2022-12-19T10:54:55.359Z,-1.71
2022-12-19T10:58:59.499Z,-1.68
2022-12-19T11:03:19.150Z,-1.69
2022-12-19T11:07:22.939Z,-1.63
2022-12-19T11:13:26.562Z,-1.61
2022-12-19T11:21:33.384Z,-1.54
2022-12-19T11:29:19.131Z,-1.53
2022-12-19T11:29:30.010Z,-1.55
2022-12-19T11:31:29.793Z,-1.56
2022-12-19T11:33:46.939Z,-1.52
2022-12-19T11:37:56.091Z,-1.52
2022-12-19T11:42:04.520Z,-1.51
2022-12-19T11:46:19.452Z,-1.49
2022-12-19T11:50:28.861Z,-1.50
2022-12-19T11:54:39.368Z,-1.42
2022-12-19T11:58:42.407Z,-1.45
2022-12-19T12:03:07.745Z,-1.45
2022-12-19T12:07:21.762Z,-1.45
2022-12-19T12:17:40.084Z,-1.42
2022-12-19T12:25:25.854Z,-1.35
2022-12-19T12:31:20.311Z,-1.39
2022-12-19T12:31:44.386Z,-1.41
2022-12-19T12:31:58.101Z,-1.40
2022-12-19T12:35:29.221Z,-1.34
2022-12-19T12:39:20.740Z,-1.29
2022-12-19T12:43:45.307Z,-1.29
2022-12-19T12:47:53.132Z,-1.29
2022-12-19T12:51:57.013Z,-1.31
2022-12-19T12:56:02.027Z,-1.31
2022-12-19T13:00:20.938Z,-1.25
2022-12-19T13:04:34.956Z,-1.22
2022-12-19T13:08:40.844Z,-1.21
2022-12-19T13:13:01.377Z,-1.15
2022-12-19T13:17:05.630Z,-1.15
2022-12-19T13:21:10.911Z,-1.15
2022-12-19T13:25:51.176Z,-1.17
2022-12-19T13:29:57.415Z,-1.14
2022-12-19T13:34:19.429Z,-1.13
2022-12-19T13:40:00.346Z,-1.11
2022-12-19T13:43:16.615Z,-1.06
2022-12-19T13:47:23.819Z,-1.05
2022-12-19T13:51:27.014Z,-1.02
2022-12-19T13:55:31.407Z,-1.03
2022-12-19T13:59:37.428Z,-0.98
2022-12-19T14:03:45.367Z,-0.98
2022-12-19T14:07:48.694Z,-1.01
2022-12-19T14:13:38.407Z,-0.99
2022-12-19T14:16:19.923Z,-0.99
2022-12-19T14:22:02.403Z,-1.01
2022-12-19T14:24:55.464Z,-0.96
2022-12-19T14:29:38.885Z,-1.00
2022-12-19T14:34:43.174Z,-1.02
2022-12-19T14:39:20.914Z,-1.01
2022-12-19T14:43:57.973Z,-1.02
2022-12-19T14:54:15.968Z,-1.04
2022-12-19T14:54:37.232Z,-1.06
2022-12-19T15:01:09.070Z,-1.05
2022-12-19T15:05:17.055Z,-1.06
2022-12-19T15:11:09.160Z,-1.08
2022-12-19T15:14:50.872Z,-1.09
2022-12-19T15:18:21.308Z,-1.10
2022-12-19T15:22:25.622Z,-1.10
2022-12-19T15:26:31.303Z,-1.11
2022-12-19T15:30:38.067Z,-1.10
2022-12-19T15:34:50.751Z,-1.07
2022-12-19T15:38:55.516Z,-1.09
2022-12-19T15:42:59.392Z,-1.06
2022-12-19T15:47:05.138Z,-1.03
2022-12-19T15:51:12.365Z,-1.02
2022-12-19T15:55:17.912Z,-1.02
2022-12-19T15:59:34.731Z,-1.03
2022-12-19T16:03:41.296Z,-1.05
2022-12-19T16:07:44.828Z,-1.05
2022-12-19T16:11:49.303Z,-1.06
2022-12-19T16:15:53.040Z,-1.05
2022-12-19T16:19:56.007Z,-1.03
2022-12-19T16:23:59.026Z,-1.02
2022-12-19T16:28:05.751Z,-1.02
2022-12-19T16:32:10.893Z,-0.99
2022-12-19T16:36:14.065Z,-1.00
2022-12-19T16:40:18.409Z,-1.01
2022-12-19T16:44:25.534Z,-1.00
2022-12-19T16:48:29.655Z,-0.99
2022-12-19T16:52:36.149Z,-0.95
2022-12-19T16:56:45.836Z,-0.90
2022-12-19T17:00:52.085Z,-0.95
2022-12-19T17:04:55.073Z,-0.93
2022-12-19T17:08:57.997Z,-0.97
2022-12-19T17:13:03.838Z,-0.98
2022-12-19T17:17:13.347Z,-1.01
2022-12-19T17:21:18.991Z,-1.01
2022-12-19T17:25:24.314Z,-0.97
2022-12-19T17:29:27.639Z,-0.96
2022-12-19T17:33:35.652Z,-1.00
2022-12-19T17:37:38.609Z,-1.00
2022-12-19T17:41:41.851Z,-1.01
2022-12-19T17:45:45.105Z,-0.98
2022-12-19T17:49:50.147Z,-0.94
2022-12-19T17:53:53.192Z,-0.93
2022-12-19T17:57:56.498Z,-0.92
2022-12-19T18:01:59.968Z,-0.95
2022-12-19T18:06:10.246Z,-0.99
2022-12-19T18:10:16.356Z,-1.02
2022-12-19T18:14:19.973Z,-1.02
2022-12-19T18:18:28.961Z,-1.04
2022-12-19T18:22:33.283Z,-1.08
2022-12-19T18:26:36.775Z,-1.06
2022-12-19T18:30:40.194Z,-1.06
2022-12-19T18:34:44.247Z,-1.08
2022-12-19T18:38:49.177Z,-1.04
2022-12-19T18:42:52.199Z,-1.01
2022-12-19T18:46:55.269Z,-1.01
2022-12-19T18:51:00.390Z,-0.97
2022-12-19T18:55:14.652Z,-0.94
2022-12-19T18:59:17.624Z,-0.95
2022-12-19T19:03:25.937Z,-0.99
2022-12-19T19:07:29.070Z,-1.02
2022-12-19T19:11:34.019Z,-1.01
2022-12-19T19:15:41.397Z,-0.99
2022-12-19T19:19:44.730Z,-1.00
2022-12-19T19:23:52.761Z,-1.01
2022-12-19T19:27:57.167Z,-1.02
2022-12-19T19:32:00.216Z,-0.98
2022-12-19T19:36:12.011Z,-0.97
2022-12-19T19:40:16.160Z,-0.95
2022-12-19T19:44:20.704Z,-0.95
2022-12-19T19:48:23.701Z,-0.93
2022-12-19T19:52:26.705Z,-0.97
2022-12-19T19:56:29.729Z,-1.01
2022-12-19T20:00:34.411Z,-1.00
2022-12-19T20:04:37.535Z,-1.02
2022-12-19T20:08:41.228Z,-1.05
2022-12-19T20:12:44.674Z,-1.07
2022-12-19T20:16:50.120Z,-1.08
2022-12-19T20:20:53.178Z,-1.05
2022-12-19T20:24:56.496Z,-1.05
2022-12-19T20:28:59.450Z,-1.08
2022-12-19T20:33:04.099Z,-1.10
2022-12-19T20:37:07.135Z,-1.10
2022-12-19T20:41:10.426Z,-1.14
2022-12-19T20:45:13.606Z,-1.12
2022-12-19T20:49:18.769Z,-1.09
2022-12-19T20:53:21.943Z,-1.09
2022-12-19T20:57:24.937Z,-1.10
2022-12-19T21:01:28.261Z,-1.11
2022-12-19T21:05:32.638Z,-1.13
2022-12-19T21:09:35.737Z,-1.12
2022-12-19T21:13:40.947Z,-1.15
2022-12-19T21:17:44.419Z,-1.13
2022-12-19T21:21:48.742Z,-1.17
2022-12-19T21:25:52.245Z,-1.14
2022-12-19T21:29:55.210Z,-1.13
2022-12-19T21:33:59.533Z,-1.14
2022-12-19T21:38:03.809Z,-1.12
2022-12-19T21:42:06.923Z,-1.14
2022-12-19T21:46:12.431Z,-1.16
2022-12-19T21:50:16.560Z,-1.18
2022-12-19T21:54:20.870Z,-1.21
2022-12-19T21:58:23.840Z,-1.21
2022-12-19T22:02:26.810Z,-1.20
2022-12-19T22:06:32.118Z,-1.23
2022-12-19T22:10:39.070Z,-1.25
2022-12-19T22:14:41.980Z,-1.29
2022-12-19T22:18:46.189Z,-1.30
2022-12-19T22:22:49.108Z,-1.29
2022-12-19T22:26:53.434Z,-1.34
2022-12-19T22:30:56.514Z,-1.39
2022-12-19T22:34:59.433Z,-1.35
2022-12-19T22:39:04.898Z,-1.35
2022-12-19T22:43:09.453Z,-1.36
2022-12-19T22:47:12.362Z,-1.38
2022-12-19T22:51:16.611Z,-1.40
2022-12-19T22:55:19.609Z,-1.45
2022-12-19T22:59:24.015Z,-1.46
2022-12-19T23:03:27.233Z,-1.43
2022-12-19T23:07:30.357Z,-1.45
2022-12-19T23:11:36.183Z,-1.43
2022-12-19T23:15:40.816Z,-1.47
2022-12-19T23:19:44.152Z,-1.48
2022-12-19T23:23:49.499Z,-1.53
2022-12-19T23:27:52.672Z,-1.58
2022-12-19T23:31:57.357Z,-1.56
2022-12-19T23:36:01.435Z,-1.59
2022-12-19T23:40:05.343Z,-1.59
2022-12-19T23:44:08.675Z,-1.60
2022-12-19T23:48:13.325Z,-1.56
2022-12-19T23:52:16.852Z,-1.56
2022-12-19T23:56:22.106Z,-1.52
